createdAt,value
2018-07-26T00:00:50.128Z,24.64
2018-07-26T00:03:16.110Z,24.12
2018-07-26T00:05:42.087Z,23.63
2018-07-26T00:08:08.052Z,23.68
2018-07-26T00:10:34.026Z,23.71
2018-07-26T00:13:00.042Z,23.66
2018-07-26T00:15:25.999Z,23.69
2018-07-26T00:17:52.011Z,24.02
2018-07-26T00:20:17.973Z,23.67
2018-07-26T00:22:43.933Z,23.46
2018-07-26T00:25:09.922Z,23.24
2018-07-26T00:27:35.928Z,23.40
2018-07-26T00:30:01.959Z,23.48
2018-07-26T00:32:27.925Z,23.71
2018-07-26T00:34:53.879Z,23.49
2018-07-26T00:37:19.829Z,23.14
2018-07-26T00:39:45.802Z,23.07
2018-07-26T00:42:11.774Z,23.07
2018-07-26T00:44:37.759Z,23.54
2018-07-26T00:47:03.715Z,23.96
2018-07-26T00:49:29.657Z,23.85
2018-07-26T00:51:55.632Z,23.99
2018-07-26T00:54:21.606Z,23.78
2018-07-26T00:56:47.589Z,23.40
2018-07-26T00:59:13.536Z,23.22
2018-07-26T01:01:39.529Z,23.11
2018-07-26T01:04:05.508Z,23.10
2018-07-26T01:06:31.476Z,22.97
2018-07-26T01:08:57.452Z,23.06
2018-07-26T01:11:23.445Z,22.70
2018-07-26T01:13:49.403Z,22.89
2018-07-26T01:16:15.400Z,23.06
2018-07-26T01:18:41.413Z,23.14
2018-07-26T01:21:07.408Z,23.25
2018-07-26T01:23:33.364Z,22.94
2018-07-26T01:25:59.333Z,23.05
2018-07-26T01:28:25.364Z,23.02
2018-07-26T01:30:51.381Z,22.69
2018-07-26T01:33:17.344Z,22.67
2018-07-26T01:35:43.308Z,22.26
2018-07-26T01:38:09.268Z,22.37
2018-07-26T01:40:35.259Z,21.94
2018-07-26T01:43:01.237Z,22.10
2018-07-26T01:45:27.228Z,22.19
2018-07-26T01:47:53.210Z,22.31
2018-07-26T01:50:19.213Z,22.87
2018-07-26T01:52:45.201Z,22.93
2018-07-26T01:55:11.162Z,22.79
2018-07-26T01:57:37.095Z,22.74
2018-07-26T02:00:03.067Z,22.66
2018-07-26T02:02:29.025Z,22.82
2018-07-26T02:04:55.013Z,22.60
2018-07-26T02:07:21.001Z,22.74
2018-07-26T02:09:46.956Z,22.67
2018-07-26T02:12:12.909Z,22.58
2018-07-26T02:14:38.909Z,22.32
2018-07-26T02:17:04.879Z,22.27
2018-07-26T02:19:30.879Z,22.14
2018-07-26T02:21:56.871Z,22.14
2018-07-26T02:24:22.833Z,22.03
2018-07-26T02:26:48.815Z,22.13
2018-07-26T02:29:15.715Z,21.99
2018-07-26T02:31:41.703Z,22.21
2018-07-26T02:34:07.671Z,21.94
2018-07-26T02:36:33.674Z,22.16
2018-07-26T02:38:59.652Z,22.21
2018-07-26T02:41:25.651Z,21.99
2018-07-26T02:43:51.654Z,22.31
2018-07-26T02:46:17.644Z,22.34
2018-07-26T02:48:43.665Z,22.04
2018-07-26T02:51:09.646Z,21.59
2018-07-26T02:53:35.622Z,21.37
2018-07-26T02:56:01.594Z,21.36
2018-07-26T02:58:27.600Z,21.89
2018-07-26T03:00:53.607Z,22.11
2018-07-26T03:03:19.658Z,22.23
2018-07-26T03:05:45.636Z,22.26
2018-07-26T03:08:11.662Z,21.95
2018-07-26T03:10:37.596Z,22.41
2018-07-26T03:13:03.544Z,22.04
2018-07-26T03:15:29.548Z,21.82
2018-07-26T03:17:55.509Z,22.10
2018-07-26T03:20:21.473Z,21.81
2018-07-26T03:22:47.450Z,21.30
2018-07-26T03:25:13.434Z,21.57
2018-07-26T03:27:39.432Z,21.49
2018-07-26T03:30:05.380Z,21.23
2018-07-26T03:32:31.353Z,21.16
2018-07-26T03:34:57.290Z,21.10
2018-07-26T03:37:23.258Z,21.13
2018-07-26T03:39:49.187Z,20.88
2018-07-26T03:42:15.160Z,21.19
2018-07-26T03:44:41.161Z,21.26
2018-07-26T03:47:07.181Z,21.19
2018-07-26T03:49:33.140Z,21.22
2018-07-26T03:51:59.142Z,21.43
2018-07-26T03:54:25.144Z,21.40
2018-07-26T03:56:51.125Z,21.82
2018-07-26T03:59:17.107Z,21.93
2018-07-26T04:01:43.134Z,22.00
2018-07-26T04:04:09.130Z,21.53
2018-07-26T04:06:35.166Z,21.52
2018-07-26T04:09:01.187Z,21.32
2018-07-26T04:11:27.139Z,20.92
2018-07-26T04:13:53.081Z,21.10
2018-07-26T04:16:19.020Z,21.38
2018-07-26T04:18:44.976Z,21.22
2018-07-26T04:21:10.980Z,21.71
2018-07-26T04:23:36.940Z,21.99
2018-07-26T04:26:02.939Z,21.42
2018-07-26T04:28:28.895Z,21.41
2018-07-26T04:30:54.891Z,21.78
2018-07-26T04:33:20.865Z,21.65
2018-07-26T04:35:46.814Z,21.65
2018-07-26T04:38:12.833Z,21.72
2018-07-26T04:40:38.837Z,22.33
2018-07-26T04:43:04.935Z,22.30
2018-07-26T04:45:30.893Z,22.77
2018-07-26T04:47:56.903Z,22.85
2018-07-26T04:50:22.908Z,22.27
2018-07-26T04:52:48.928Z,22.17
2018-07-26T04:55:14.920Z,22.76
2018-07-26T04:57:40.874Z,23.04
2018-07-26T05:00:06.869Z,23.25
2018-07-26T05:02:32.836Z,23.22
2018-07-26T05:04:58.856Z,23.12
2018-07-26T05:07:24.841Z,23.33
2018-07-26T05:09:50.865Z,24.07
2018-07-26T05:12:16.847Z,24.16
2018-07-26T05:14:42.869Z,24.43
2018-07-26T05:17:08.874Z,24.49
2018-07-26T05:19:35.021Z,24.90
2018-07-26T05:22:01.046Z,25.22
2018-07-26T05:24:27.020Z,25.41
2018-07-26T05:26:53.027Z,25.27
2018-07-26T05:29:18.969Z,25.28
2018-07-26T05:31:44.937Z,25.34
2018-07-26T05:34:10.891Z,25.54
2018-07-26T05:36:37.032Z,25.79
2018-07-26T05:39:03.032Z,25.84
2018-07-26T05:41:29.073Z,25.89
2018-07-26T05:43:54.987Z,25.85
2018-07-26T05:46:20.952Z,26.02
2018-07-26T05:48:46.938Z,26.25
2018-07-26T05:51:12.926Z,26.34
2018-07-26T05:53:38.980Z,26.42
2018-07-26T05:56:04.982Z,26.52
2018-07-26T05:58:31.001Z,26.66
2018-07-26T06:00:56.989Z,26.72
2018-07-26T06:03:23.053Z,26.89
2018-07-26T06:05:49.022Z,26.95
2018-07-26T06:08:15.003Z,26.79
2018-07-26T06:10:40.966Z,26.74
2018-07-26T06:13:06.945Z,27.06
2018-07-26T06:15:32.951Z,27.12
2018-07-26T06:17:58.945Z,27.38
2018-07-26T06:20:24.939Z,27.40
2018-07-26T06:22:50.926Z,27.28
2018-07-26T06:25:16.875Z,27.39
2018-07-26T06:27:42.833Z,27.57
2018-07-26T06:30:08.843Z,27.89
2018-07-26T06:32:34.789Z,28.00
2018-07-26T06:35:00.738Z,27.90
2018-07-26T06:37:26.730Z,28.13
2018-07-26T06:39:52.732Z,27.77
2018-07-26T06:42:18.781Z,28.40
2018-07-26T06:44:44.767Z,28.28
2018-07-26T06:47:10.785Z,28.23
2018-07-26T06:49:36.741Z,28.86
2018-07-26T06:52:02.696Z,28.77
2018-07-26T06:54:28.676Z,28.94
2018-07-26T06:56:54.669Z,29.19
2018-07-26T06:59:20.646Z,28.92
2018-07-26T07:01:46.594Z,29.53
2018-07-26T07:04:12.638Z,29.55
2018-07-26T07:06:38.618Z,29.42
2018-07-26T07:09:04.703Z,29.40
2018-07-26T07:11:30.645Z,29.55
2018-07-26T07:13:56.655Z,29.74
2018-07-26T07:16:23.403Z,30.16
2018-07-26T07:18:50.180Z,30.17
2018-07-26T07:21:16.161Z,30.38
2018-07-26T07:23:42.154Z,30.63
2018-07-26T07:26:08.218Z,30.72
2018-07-26T07:28:34.287Z,30.99
2018-07-26T07:31:00.233Z,30.64
2018-07-26T07:33:26.225Z,30.80
2018-07-26T07:35:52.225Z,30.91
2018-07-26T07:38:18.241Z,30.98
2018-07-26T07:40:44.304Z,30.93
2018-07-26T07:43:10.276Z,30.83
2018-07-26T07:45:36.333Z,31.09
2018-07-26T07:48:02.315Z,31.00
2018-07-26T07:50:28.371Z,31.06
2018-07-26T07:52:54.385Z,30.90
2018-07-26T07:55:20.345Z,30.60
2018-07-26T07:57:46.304Z,30.71
2018-07-26T08:00:12.340Z,30.60
2018-07-26T08:02:38.293Z,30.58
2018-07-26T08:05:04.314Z,30.64
2018-07-26T08:07:30.389Z,30.82
2018-07-26T08:09:56.450Z,30.94
2018-07-26T08:12:22.477Z,30.80
2018-07-26T08:14:48.457Z,30.84
2018-07-26T08:17:14.576Z,30.62
2018-07-26T08:19:40.572Z,30.56
2018-07-26T08:22:06.534Z,30.75
2018-07-26T08:24:32.646Z,30.66
2018-07-26T08:27:00.038Z,30.60
2018-07-26T08:29:26.096Z,30.27
2018-07-26T08:31:52.184Z,30.38
2018-07-26T08:34:18.153Z,30.05
2018-07-26T08:36:44.128Z,30.00
2018-07-26T08:39:10.081Z,29.79
2018-07-26T08:41:36.089Z,29.67
2018-07-26T08:44:02.177Z,29.45
2018-07-26T08:46:28.148Z,29.36
2018-07-26T08:48:54.228Z,29.26
2018-07-26T08:51:20.197Z,29.20
2018-07-26T08:53:46.205Z,29.28
2018-07-26T08:56:12.171Z,29.47
2018-07-26T08:58:38.151Z,29.22
2018-07-26T09:01:04.207Z,29.37
2018-07-26T09:03:30.251Z,29.45
2018-07-26T09:05:56.228Z,29.33
2018-07-26T09:08:22.198Z,29.32
2018-07-26T09:10:48.269Z,29.32
2018-07-26T09:13:14.265Z,29.19
2018-07-26T09:15:40.233Z,29.22
2018-07-26T09:18:06.173Z,29.22
2018-07-26T09:20:32.212Z,29.28
2018-07-26T09:22:58.204Z,29.22
2018-07-26T09:25:24.417Z,29.19
2018-07-26T09:27:51.097Z,29.13
2018-07-26T09:30:17.215Z,28.95
2018-07-26T09:32:43.171Z,29.03
2018-07-26T09:35:09.152Z,29.05
2018-07-26T09:37:35.134Z,28.97
2018-07-26T09:40:01.268Z,29.03
2018-07-26T09:42:27.297Z,29.04
2018-07-26T09:44:53.278Z,29.04
2018-07-26T09:47:19.258Z,28.96
2018-07-26T09:49:45.248Z,28.97
2018-07-26T09:52:11.206Z,28.94
2018-07-26T09:54:37.214Z,28.88
2018-07-26T09:57:03.232Z,28.94
2018-07-26T09:59:29.207Z,28.90
2018-07-26T10:01:55.180Z,28.84
2018-07-26T10:04:21.179Z,28.81
2018-07-26T10:06:47.172Z,28.79
2018-07-26T10:09:13.172Z,28.72
2018-07-26T10:11:39.186Z,28.72
2018-07-26T10:14:05.220Z,28.78
2018-07-26T10:16:31.147Z,28.81
2018-07-26T10:18:57.136Z,28.82
2018-07-26T10:21:23.088Z,28.89
2018-07-26T10:23:49.105Z,28.86
2018-07-26T10:26:15.074Z,28.81
2018-07-26T10:28:41.075Z,28.75
2018-07-26T10:31:07.081Z,28.73
2018-07-26T10:33:33.110Z,28.65
2018-07-26T10:35:59.084Z,28.58
2018-07-26T10:38:25.108Z,28.64
2018-07-26T10:40:51.132Z,28.66
2018-07-26T10:43:17.163Z,28.70
2018-07-26T10:45:43.180Z,28.68
2018-07-26T10:48:09.264Z,28.72
2018-07-26T10:50:35.282Z,28.71
2018-07-26T10:53:01.288Z,28.75
2018-07-26T10:55:27.263Z,28.77
2018-07-26T10:57:53.317Z,28.76
2018-07-26T11:00:19.384Z,28.76
2018-07-26T11:02:45.313Z,28.73
2018-07-26T11:05:11.286Z,28.71
2018-07-26T11:07:37.320Z,28.72
2018-07-26T11:10:03.312Z,28.70
2018-07-26T11:12:29.357Z,28.58
2018-07-26T11:14:55.455Z,28.59
2018-07-26T11:17:21.442Z,28.64
2018-07-26T11:19:47.476Z,28.64
2018-07-26T11:22:13.458Z,28.63
2018-07-26T11:24:39.456Z,28.59
2018-07-26T11:27:05.514Z,28.59
2018-07-26T11:29:31.510Z,28.63
2018-07-26T11:31:57.448Z,28.61
2018-07-26T11:34:23.430Z,28.55
2018-07-26T11:36:49.406Z,28.55
2018-07-26T11:39:15.360Z,28.25
2018-07-26T11:41:41.337Z,28.29
2018-07-26T11:44:07.327Z,28.30
2018-07-26T11:46:33.300Z,28.28
2018-07-26T11:48:59.318Z,28.21
2018-07-26T11:51:25.282Z,28.37
2018-07-26T11:53:52.024Z,28.42
2018-07-26T11:56:18.046Z,28.45
2018-07-26T11:58:45.222Z,28.46
2018-07-26T12:01:11.207Z,28.49
2018-07-26T12:03:37.250Z,28.54
2018-07-26T12:06:03.220Z,28.46
2018-07-26T12:08:29.216Z,28.51
2018-07-26T12:10:55.229Z,28.50
2018-07-26T12:13:21.291Z,28.56
2018-07-26T12:15:47.289Z,28.59
2018-07-26T12:18:13.380Z,28.57
2018-07-26T12:20:39.372Z,28.60
2018-07-26T12:23:05.364Z,28.56
2018-07-26T12:25:31.333Z,28.59
2018-07-26T12:27:57.333Z,28.61
2018-07-26T12:30:23.305Z,28.65
2018-07-26T12:32:49.358Z,28.73
2018-07-26T12:35:15.363Z,28.72
2018-07-26T12:37:41.357Z,28.65
2018-07-26T12:40:07.360Z,28.86
2018-07-26T12:42:33.362Z,28.81
2018-07-26T12:44:59.374Z,28.77
2018-07-26T12:47:25.397Z,28.77
2018-07-26T12:49:51.404Z,28.85
2018-07-26T12:52:17.397Z,28.84
2018-07-26T12:54:43.457Z,28.86
2018-07-26T12:57:09.453Z,28.93
2018-07-26T12:59:35.508Z,28.87
2018-07-26T13:02:01.516Z,28.88
2018-07-26T13:04:28.542Z,28.79
2018-07-26T13:06:54.613Z,28.95
2018-07-26T13:09:20.661Z,29.01
2018-07-26T13:11:47.029Z,28.92
2018-07-26T13:14:13.044Z,28.62
2018-07-26T13:16:39.190Z,28.37
2018-07-26T13:19:05.264Z,28.27
2018-07-26T13:21:31.990Z,28.23
2018-07-26T13:23:58.088Z,28.16
2018-07-26T13:26:24.249Z,27.76
2018-07-26T13:28:50.329Z,27.51
2018-07-26T13:31:16.446Z,27.58
2018-07-26T13:33:43.282Z,27.26
2018-07-26T13:36:09.324Z,27.81
2018-07-26T13:38:35.405Z,27.47
2018-07-26T13:41:01.524Z,27.27
2018-07-26T13:43:27.531Z,26.74
2018-07-26T13:45:53.554Z,26.70
2018-07-26T13:48:19.690Z,27.39
2018-07-26T13:50:45.727Z,27.94
2018-07-26T13:53:11.745Z,27.58
2018-07-26T13:55:38.705Z,27.42
2018-07-26T13:58:04.741Z,27.27
2018-07-26T14:00:30.773Z,27.19
2018-07-26T14:02:56.798Z,27.09
2018-07-26T14:05:22.862Z,26.41
2018-07-26T14:07:48.858Z,27.15
2018-07-26T14:10:14.902Z,26.92
2018-07-26T14:12:40.881Z,26.86
2018-07-26T14:15:06.871Z,26.30
2018-07-26T14:17:32.879Z,26.58
2018-07-26T14:19:59.016Z,26.41
2018-07-26T14:22:25.022Z,26.81
2018-07-26T14:24:51.098Z,26.18
2018-07-26T14:27:17.106Z,26.12
2018-07-26T14:29:43.173Z,26.88
2018-07-26T14:32:09.220Z,26.66
2018-07-26T14:34:35.239Z,26.75
2018-07-26T14:37:01.230Z,27.27
2018-07-26T14:39:27.253Z,27.35
2018-07-26T14:41:53.297Z,27.22
2018-07-26T14:44:19.396Z,26.99
2018-07-26T14:46:45.369Z,26.33
2018-07-26T14:49:11.342Z,25.98
2018-07-26T14:51:37.361Z,26.19
2018-07-26T14:54:03.413Z,25.92
2018-07-26T14:56:29.377Z,25.87
2018-07-26T14:58:55.397Z,26.17
2018-07-26T15:01:21.465Z,26.49
2018-07-26T15:03:47.456Z,26.24
2018-07-26T15:06:13.470Z,26.17
2018-07-26T15:08:39.409Z,26.08
2018-07-26T15:11:06.428Z,26.75
2018-07-26T15:13:32.409Z,26.61
2018-07-26T15:15:58.414Z,26.11
2018-07-26T15:18:24.407Z,26.09
2018-07-26T15:20:50.413Z,26.59
2018-07-26T15:23:16.407Z,26.43
2018-07-26T15:25:42.396Z,26.55
2018-07-26T15:28:08.353Z,26.57
2018-07-26T15:30:34.341Z,26.70
2018-07-26T15:33:00.368Z,26.78
2018-07-26T15:35:26.286Z,26.60
2018-07-26T15:37:52.552Z,26.30
2018-07-26T15:40:18.290Z,26.08
2018-07-26T15:42:44.328Z,26.52
2018-07-26T15:45:10.401Z,27.15
2018-07-26T15:47:36.438Z,27.03
2018-07-26T15:50:02.457Z,26.38
2018-07-26T15:52:28.566Z,26.41
2018-07-26T15:54:54.578Z,26.41
2018-07-26T15:57:20.580Z,26.36
2018-07-26T15:59:46.635Z,26.51
2018-07-26T16:02:12.623Z,26.55
2018-07-26T16:04:38.696Z,27.25
2018-07-26T16:07:04.642Z,27.23
2018-07-26T16:09:30.624Z,27.07
2018-07-26T16:11:56.597Z,27.18
2018-07-26T16:14:22.702Z,27.48
2018-07-26T16:16:48.753Z,27.09
2018-07-26T16:19:14.838Z,27.01
2018-07-26T16:21:42.075Z,26.93
2018-07-26T16:24:08.108Z,26.85
2018-07-26T16:26:34.129Z,27.17
2018-07-26T16:29:00.196Z,27.29
2018-07-26T16:31:26.199Z,27.47
2018-07-26T16:33:52.254Z,27.46
2018-07-26T16:36:19.374Z,27.71
2018-07-26T16:38:45.550Z,27.60
2018-07-26T16:41:12.004Z,27.63
2018-07-26T16:43:38.297Z,27.42
2018-07-26T16:46:04.357Z,27.40
2018-07-26T16:48:31.406Z,27.68
2018-07-26T16:50:58.389Z,27.75
2018-07-26T16:53:24.372Z,27.73
2018-07-26T16:55:50.397Z,27.61
2018-07-26T16:58:16.383Z,27.59
2018-07-26T17:00:43.422Z,27.78
2018-07-26T17:03:09.439Z,27.94
2018-07-26T17:05:35.442Z,27.96
2018-07-26T17:08:01.461Z,28.05
2018-07-26T17:10:27.522Z,28.09
2018-07-26T17:12:53.626Z,28.00
2018-07-26T17:15:19.688Z,27.96
2018-07-26T17:17:45.745Z,27.97
2018-07-26T17:20:11.832Z,28.11
2018-07-26T17:22:37.821Z,28.28
2018-07-26T17:25:03.841Z,28.17
2018-07-26T17:27:36.593Z,28.16
2018-07-26T17:30:02.638Z,28.07
2018-07-26T17:32:28.718Z,28.04
2018-07-26T17:34:54.796Z,28.03
2018-07-26T17:37:20.827Z,27.96
2018-07-26T17:39:47.838Z,27.95
2018-07-26T17:42:14.752Z,28.05
2018-07-26T17:47:14.373Z,28.15
2018-07-26T17:49:41.443Z,28.15
2018-07-26T17:52:07.589Z,28.22
2018-07-26T17:54:33.633Z,28.18
2018-07-26T17:57:03.527Z,28.12
2018-07-26T17:59:38.084Z,28.08
2018-07-26T18:02:04.098Z,29.92
2018-07-26T18:04:30.280Z,31.46
2018-07-26T18:06:56.222Z,31.94
2018-07-26T18:09:22.247Z,32.18
2018-07-26T18:11:48.200Z,32.39
2018-07-26T18:14:14.332Z,32.56
2018-07-26T18:16:40.300Z,32.60
2018-07-26T18:19:06.237Z,32.70
2018-07-26T18:21:32.205Z,32.81
2018-07-26T18:23:58.322Z,32.94
2018-07-26T18:26:24.307Z,33.44
2018-07-26T18:28:50.293Z,33.75
2018-07-26T18:31:16.301Z,33.91
2018-07-26T18:33:42.275Z,34.01
2018-07-26T18:36:08.273Z,34.04
2018-07-26T18:38:34.269Z,33.97
2018-07-26T18:41:00.297Z,33.94
2018-07-26T18:43:26.337Z,33.88
2018-07-26T18:45:52.338Z,33.87
2018-07-26T18:48:18.314Z,33.86
2018-07-26T18:50:44.494Z,33.84
2018-07-26T18:53:10.490Z,33.76
2018-07-26T18:55:36.612Z,33.70
2018-07-26T18:58:02.611Z,33.52
2018-07-26T19:00:28.754Z,33.53
2018-07-26T19:02:54.741Z,33.51
2018-07-26T19:05:20.712Z,33.59
2018-07-26T19:07:46.865Z,33.58
2018-07-26T19:10:12.890Z,33.54
2018-07-26T19:12:38.932Z,33.50
2018-07-26T19:15:04.884Z,33.51
2018-07-26T19:17:30.979Z,33.55
2018-07-26T19:19:56.975Z,33.56
2018-07-26T19:22:23.034Z,33.54
2018-07-26T19:24:49.121Z,33.54
2018-07-26T19:27:15.100Z,33.53
2018-07-26T19:29:41.052Z,33.50
2018-07-26T19:32:07.177Z,33.53
2018-07-26T19:34:33.134Z,33.51
2018-07-26T19:36:59.119Z,33.46
2018-07-26T19:39:25.202Z,33.48
2018-07-26T19:41:51.450Z,33.47
2018-07-26T19:44:17.466Z,33.46
2018-07-26T19:46:43.477Z,33.45
2018-07-26T19:49:09.491Z,33.39
2018-07-26T19:51:35.468Z,33.40
2018-07-26T19:54:01.553Z,33.37
2018-07-26T19:56:27.496Z,33.32
2018-07-26T19:58:53.438Z,33.32
2018-07-26T20:01:19.587Z,33.28
2018-07-26T20:03:45.697Z,33.25
2018-07-26T20:06:11.683Z,33.27
2018-07-26T20:08:37.678Z,33.19
2018-07-26T20:11:03.753Z,33.15
2018-07-26T20:13:29.755Z,33.05
2018-07-26T20:15:55.711Z,32.96
2018-07-26T20:18:21.785Z,32.85
2018-07-26T20:20:47.747Z,32.78
2018-07-26T20:23:13.739Z,32.71
2018-07-26T20:25:39.808Z,32.84
2018-07-26T20:28:05.929Z,32.69
2018-07-26T20:30:31.881Z,32.56
2018-07-26T20:32:57.867Z,32.51
2018-07-26T20:35:23.824Z,32.40
2018-07-26T20:37:49.791Z,32.30
2018-07-26T20:40:15.752Z,32.23
2018-07-26T20:42:41.756Z,32.18
2018-07-26T20:45:07.740Z,32.18
2018-07-26T20:47:33.700Z,32.07
2018-07-26T20:49:59.709Z,31.81
2018-07-26T20:52:25.671Z,31.71
2018-07-26T20:54:51.648Z,31.78
2018-07-26T20:57:17.584Z,31.65
2018-07-26T20:59:43.611Z,31.63
2018-07-26T21:02:09.604Z,31.71
2018-07-26T21:04:35.551Z,31.51
2018-07-26T21:07:01.556Z,31.55
2018-07-26T21:09:27.564Z,31.45
2018-07-26T21:11:53.542Z,31.52
2018-07-26T21:14:19.515Z,31.49
2018-07-26T21:16:45.517Z,31.41
2018-07-26T21:19:11.457Z,31.43
2018-07-26T21:21:37.417Z,31.46
2018-07-26T21:24:03.370Z,31.51
2018-07-26T21:26:29.330Z,31.43
2018-07-26T21:28:55.291Z,31.37
2018-07-26T21:31:21.254Z,31.40
2018-07-26T21:33:47.233Z,31.36
2018-07-26T21:36:13.176Z,31.32
2018-07-26T21:38:39.167Z,31.28
2018-07-26T21:41:05.114Z,31.04
2018-07-26T21:43:31.073Z,30.94
2018-07-26T21:45:57.043Z,30.93
2018-07-26T21:48:22.971Z,30.84
2018-07-26T21:50:48.932Z,30.74
2018-07-26T21:53:14.872Z,30.64
2018-07-26T21:55:40.838Z,30.62
2018-07-26T21:58:06.784Z,30.70
2018-07-26T22:00:32.823Z,30.72
2018-07-26T22:02:58.765Z,30.57
2018-07-26T22:05:24.701Z,30.70
2018-07-26T22:07:50.645Z,30.73
2018-07-26T22:10:16.611Z,30.68
2018-07-26T22:12:42.576Z,30.72
2018-07-26T22:15:08.550Z,30.76
2018-07-26T22:17:34.536Z,30.76
2018-07-26T22:20:00.507Z,30.64
2018-07-26T22:22:26.461Z,30.49
2018-07-26T22:24:52.384Z,30.54
2018-07-26T22:27:18.336Z,30.68
2018-07-26T22:29:44.306Z,30.68
2018-07-26T22:32:10.264Z,30.65
2018-07-26T22:34:36.198Z,30.57
2018-07-26T22:37:02.172Z,30.63
2018-07-26T22:39:28.103Z,30.58
2018-07-26T22:41:54.060Z,30.59
2018-07-26T22:44:20.005Z,30.48
2018-07-26T22:46:45.987Z,30.49
2018-07-26T22:49:11.935Z,30.38
2018-07-26T22:51:37.876Z,30.21
2018-07-26T22:54:03.832Z,30.14
2018-07-26T22:56:29.771Z,30.27
2018-07-26T22:58:55.743Z,30.28
2018-07-26T23:01:21.749Z,30.32
2018-07-26T23:03:47.721Z,30.39
2018-07-26T23:06:13.660Z,30.41
2018-07-26T23:08:39.612Z,30.44
2018-07-26T23:11:05.576Z,30.45
2018-07-26T23:13:31.531Z,30.23
2018-07-26T23:15:57.483Z,29.99
2018-07-26T23:18:23.414Z,29.82
2018-07-26T23:20:49.398Z,29.78
2018-07-26T23:23:15.356Z,29.78
2018-07-26T23:25:41.326Z,29.80
2018-07-26T23:28:07.269Z,29.74
2018-07-26T23:30:33.234Z,29.75
2018-07-26T23:32:59.180Z,29.73
2018-07-26T23:35:25.147Z,29.83
2018-07-26T23:37:51.093Z,30.01
2018-07-26T23:40:17.025Z,29.83
2018-07-26T23:42:42.970Z,29.61
2018-07-26T23:45:08.904Z,29.78
2018-07-26T23:47:34.876Z,29.88
2018-07-26T23:50:00.808Z,30.00
2018-07-26T23:52:26.759Z,30.19
2018-07-26T23:54:52.709Z,30.31
2018-07-26T23:57:18.643Z,30.26
2018-07-26T23:59:44.584Z,30.21
